sensor_id;sensor_type;location;lat;lon;timestamp;P1;durP1;ratioP1;P2;durP2;ratioP2
19187;SDS011;9726;52.198;8.792;2023-01-08T00:01:13;7.07;;;2.97;;
19187;SDS011;9726;52.198;8.792;2023-01-08T00:03:40;6.27;;;3.20;;
19187;SDS011;9726;52.198;8.792;2023-01-08T00:06:13;4.23;;;3.13;;
19187;SDS011;9726;52.198;8.792;2023-01-08T00:08:40;6.07;;;2.90;;
19187;SDS011;9726;52.198;8.792;2023-01-08T00:11:08;3.47;;;2.87;;
19187;SDS011;9726;52.198;8.792;2023-01-08T00:13:36;4.10;;;3.03;;
19187;SDS011;9726;52.198;8.792;2023-01-08T00:16:04;7.37;;;3.40;;
19187;SDS011;9726;52.198;8.792;2023-01-08T00:18:32;5.50;;;3.17;;
19187;SDS011;9726;52.198;8.792;2023-01-08T00:21:00;9.20;;;3.10;;
19187;SDS011;9726;52.198;8.792;2023-01-08T00:23:28;4.23;;;3.00;;
19187;SDS011;9726;52.198;8.792;2023-01-08T00:25:55;5.17;;;3.27;;
19187;SDS011;9726;52.198;8.792;2023-01-08T00:28:22;8.97;;;3.70;;
19187;SDS011;9726;52.198;8.792;2023-01-08T00:30:50;4.17;;;2.97;;
19187;SDS011;9726;52.198;8.792;2023-01-08T00:33:17;4.33;;;3.03;;
19187;SDS011;9726;52.198;8.792;2023-01-08T00:35:45;4.43;;;3.10;;
19187;SDS011;9726;52.198;8.792;2023-01-08T00:38:12;4.17;;;2.80;;
19187;SDS011;9726;52.198;8.792;2023-01-08T00:40:40;5.93;;;3.00;;
19187;SDS011;9726;52.198;8.792;2023-01-08T00:43:07;5.03;;;2.90;;
19187;SDS011;9726;52.198;8.792;2023-01-08T00:45:34;6.77;;;3.23;;
19187;SDS011;9726;52.198;8.792;2023-01-08T00:48:02;8.40;;;3.27;;
19187;SDS011;9726;52.198;8.792;2023-01-08T00:50:29;4.80;;;2.93;;
19187;SDS011;9726;52.198;8.792;2023-01-08T00:52:57;3.10;;;2.63;;
19187;SDS011;9726;52.198;8.792;2023-01-08T00:55:24;6.17;;;3.17;;
19187;SDS011;9726;52.198;8.792;2023-01-08T00:57:51;2.97;;;2.67;;
19187;SDS011;9726;52.198;8.792;2023-01-08T01:00:19;8.07;;;2.90;;
19187;SDS011;9726;52.198;8.792;2023-01-08T01:02:46;4.97;;;3.07;;
19187;SDS011;9726;52.198;8.792;2023-01-08T01:05:14;5.40;;;3.17;;
19187;SDS011;9726;52.198;8.792;2023-01-08T01:07:43;7.67;;;3.37;;
19187;SDS011;9726;52.198;8.792;2023-01-08T01:10:11;7.50;;;3.27;;
19187;SDS011;9726;52.198;8.792;2023-01-08T01:12:39;7.07;;;3.20;;
19187;SDS011;9726;52.198;8.792;2023-01-08T01:15:08;4.73;;;3.13;;
19187;SDS011;9726;52.198;8.792;2023-01-08T01:17:39;4.80;;;2.93;;
19187;SDS011;9726;52.198;8.792;2023-01-08T01:20:07;5.33;;;2.80;;
19187;SDS011;9726;52.198;8.792;2023-01-08T01:22:35;3.57;;;3.00;;
19187;SDS011;9726;52.198;8.792;2023-01-08T01:25:03;3.63;;;2.80;;
19187;SDS011;9726;52.198;8.792;2023-01-08T01:27:30;4.70;;;2.67;;
19187;SDS011;9726;52.198;8.792;2023-01-08T01:29:58;3.90;;;3.00;;
19187;SDS011;9726;52.198;8.792;2023-01-08T01:32:25;5.53;;;3.23;;
19187;SDS011;9726;52.198;8.792;2023-01-08T01:34:52;5.47;;;3.60;;
19187;SDS011;9726;52.198;8.792;2023-01-08T01:37:20;6.03;;;3.27;;
19187;SDS011;9726;52.198;8.792;2023-01-08T01:39:47;5.07;;;3.40;;
19187;SDS011;9726;52.198;8.792;2023-01-08T01:42:15;4.63;;;2.93;;
19187;SDS011;9726;52.198;8.792;2023-01-08T01:45:21;5.13;;;2.83;;
19187;SDS011;9726;52.198;8.792;2023-01-08T01:47:53;3.87;;;2.77;;
19187;SDS011;9726;52.198;8.792;2023-01-08T01:50:26;3.93;;;2.73;;
19187;SDS011;9726;52.198;8.792;2023-01-08T01:53:09;4.23;;;3.07;;
19187;SDS011;9726;52.198;8.792;2023-01-08T01:55:38;4.37;;;2.90;;
19187;SDS011;9726;52.198;8.792;2023-01-08T01:58:07;4.63;;;3.23;;
19187;SDS011;9726;52.198;8.792;2023-01-08T02:00:37;3.50;;;2.57;;
19187;SDS011;9726;52.198;8.792;2023-01-08T02:03:05;6.23;;;3.17;;
19187;SDS011;9726;52.198;8.792;2023-01-08T02:05:37;4.63;;;2.80;;
19187;SDS011;9726;52.198;8.792;2023-01-08T02:08:08;3.70;;;2.73;;
19187;SDS011;9726;52.198;8.792;2023-01-08T02:13:28;5.43;;;3.00;;
19187;SDS011;9726;52.198;8.792;2023-01-08T02:18:33;4.13;;;2.83;;
19187;SDS011;9726;52.198;8.792;2023-01-08T02:21:06;2.67;;;2.37;;
19187;SDS011;9726;52.198;8.792;2023-01-08T02:26:20;4.23;;;2.43;;
19187;SDS011;9726;52.198;8.792;2023-01-08T02:28:52;2.67;;;2.33;;
19187;SDS011;9726;52.198;8.792;2023-01-08T02:31:21;7.63;;;2.53;;
19187;SDS011;9726;52.198;8.792;2023-01-08T02:33:49;3.47;;;2.70;;
19187;SDS011;9726;52.198;8.792;2023-01-08T02:36:25;2.87;;;2.60;;
19187;SDS011;9726;52.198;8.792;2023-01-08T02:41:42;6.00;;;2.63;;
19187;SDS011;9726;52.198;8.792;2023-01-08T02:44:12;4.90;;;2.50;;
19187;SDS011;9726;52.198;8.792;2023-01-08T02:46:40;4.50;;;2.30;;
19187;SDS011;9726;52.198;8.792;2023-01-08T02:49:09;3.13;;;2.30;;
19187;SDS011;9726;52.198;8.792;2023-01-08T02:51:40;4.70;;;2.67;;
19187;SDS011;9726;52.198;8.792;2023-01-08T02:54:15;6.63;;;2.43;;
19187;SDS011;9726;52.198;8.792;2023-01-08T02:56:44;3.57;;;2.37;;
19187;SDS011;9726;52.198;8.792;2023-01-08T02:59:13;3.80;;;2.50;;
19187;SDS011;9726;52.198;8.792;2023-01-08T03:01:41;3.47;;;2.10;;
19187;SDS011;9726;52.198;8.792;2023-01-08T03:04:13;2.67;;;2.33;;
19187;SDS011;9726;52.198;8.792;2023-01-08T03:06:40;3.77;;;2.70;;
19187;SDS011;9726;52.198;8.792;2023-01-08T03:09:08;6.47;;;2.80;;
19187;SDS011;9726;52.198;8.792;2023-01-08T03:11:39;4.93;;;2.43;;
19187;SDS011;9726;52.198;8.792;2023-01-08T03:14:09;3.80;;;2.37;;
19187;SDS011;9726;52.198;8.792;2023-01-08T03:16:40;4.07;;;2.30;;
19187;SDS011;9726;52.198;8.792;2023-01-08T03:19:10;9.77;;;2.20;;
19187;SDS011;9726;52.198;8.792;2023-01-08T03:21:39;3.97;;;2.80;;
19187;SDS011;9726;52.198;8.792;2023-01-08T03:24:07;3.13;;;2.10;;
19187;SDS011;9726;52.198;8.792;2023-01-08T03:26:35;3.90;;;2.13;;
19187;SDS011;9726;52.198;8.792;2023-01-08T03:29:03;3.23;;;2.53;;
19187;SDS011;9726;52.198;8.792;2023-01-08T03:31:32;2.27;;;2.00;;
19187;SDS011;9726;52.198;8.792;2023-01-08T03:34:01;5.23;;;2.30;;
19187;SDS011;9726;52.198;8.792;2023-01-08T03:36:29;5.17;;;2.70;;
19187;SDS011;9726;52.198;8.792;2023-01-08T03:39:00;3.17;;;2.30;;
19187;SDS011;9726;52.198;8.792;2023-01-08T03:41:29;5.67;;;2.47;;
19187;SDS011;9726;52.198;8.792;2023-01-08T03:43:58;8.47;;;2.50;;
19187;SDS011;9726;52.198;8.792;2023-01-08T03:46:30;5.37;;;2.40;;
19187;SDS011;9726;52.198;8.792;2023-01-08T03:48:58;4.17;;;2.10;;
19187;SDS011;9726;52.198;8.792;2023-01-08T03:51:26;3.33;;;2.10;;
19187;SDS011;9726;52.198;8.792;2023-01-08T03:53:55;2.73;;;2.17;;
19187;SDS011;9726;52.198;8.792;2023-01-08T03:56:24;1.87;;;1.67;;
19187;SDS011;9726;52.198;8.792;2023-01-08T03:58:51;2.77;;;2.37;;
19187;SDS011;9726;52.198;8.792;2023-01-08T04:01:18;3.23;;;2.03;;
19187;SDS011;9726;52.198;8.792;2023-01-08T04:03:46;4.03;;;2.20;;
19187;SDS011;9726;52.198;8.792;2023-01-08T04:06:13;4.10;;;2.30;;
19187;SDS011;9726;52.198;8.792;2023-01-08T04:08:41;5.03;;;2.73;;
19187;SDS011;9726;52.198;8.792;2023-01-08T04:11:08;4.57;;;2.17;;
19187;SDS011;9726;52.198;8.792;2023-01-08T04:13:35;6.90;;;2.77;;
19187;SDS011;9726;52.198;8.792;2023-01-08T04:16:03;3.97;;;2.10;;
19187;SDS011;9726;52.198;8.792;2023-01-08T04:18:31;3.07;;;2.37;;
19187;SDS011;9726;52.198;8.792;2023-01-08T04:20:59;4.83;;;2.27;;
19187;SDS011;9726;52.198;8.792;2023-01-08T04:23:26;4.50;;;2.17;;
19187;SDS011;9726;52.198;8.792;2023-01-08T04:25:53;6.23;;;2.20;;
19187;SDS011;9726;52.198;8.792;2023-01-08T04:28:21;4.67;;;2.60;;
19187;SDS011;9726;52.198;8.792;2023-01-08T04:30:50;2.27;;;1.70;;
19187;SDS011;9726;52.198;8.792;2023-01-08T04:33:17;5.77;;;2.20;;
19187;SDS011;9726;52.198;8.792;2023-01-08T04:35:45;4.73;;;1.97;;
19187;SDS011;9726;52.198;8.792;2023-01-08T04:38:12;4.17;;;2.10;;
19187;SDS011;9726;52.198;8.792;2023-01-08T04:40:39;3.37;;;2.10;;
19187;SDS011;9726;52.198;8.792;2023-01-08T04:43:07;3.30;;;2.20;;
19187;SDS011;9726;52.198;8.792;2023-01-08T04:45:34;6.80;;;2.00;;
19187;SDS011;9726;52.198;8.792;2023-01-08T04:48:01;4.93;;;1.80;;
19187;SDS011;9726;52.198;8.792;2023-01-08T04:50:29;3.37;;;2.10;;
19187;SDS011;9726;52.198;8.792;2023-01-08T04:52:57;2.77;;;1.87;;
19187;SDS011;9726;52.198;8.792;2023-01-08T04:55:25;4.10;;;3.30;;
19187;SDS011;9726;52.198;8.792;2023-01-08T04:57:52;3.13;;;2.27;;
19187;SDS011;9726;52.198;8.792;2023-01-08T05:00:20;2.97;;;2.30;;
19187;SDS011;9726;52.198;8.792;2023-01-08T05:02:47;3.77;;;2.23;;
19187;SDS011;9726;52.198;8.792;2023-01-08T05:05:15;3.97;;;2.17;;
19187;SDS011;9726;52.198;8.792;2023-01-08T05:07:42;3.17;;;2.00;;
19187;SDS011;9726;52.198;8.792;2023-01-08T05:10:09;2.80;;;1.90;;
19187;SDS011;9726;52.198;8.792;2023-01-08T05:12:37;5.70;;;2.70;;
19187;SDS011;9726;52.198;8.792;2023-01-08T05:15:04;4.77;;;2.10;;
19187;SDS011;9726;52.198;8.792;2023-01-08T05:17:32;4.37;;;2.23;;
19187;SDS011;9726;52.198;8.792;2023-01-08T05:19:59;3.03;;;1.93;;
19187;SDS011;9726;52.198;8.792;2023-01-08T05:22:26;3.60;;;2.60;;
19187;SDS011;9726;52.198;8.792;2023-01-08T05:24:54;3.30;;;1.90;;
19187;SDS011;9726;52.198;8.792;2023-01-08T05:27:21;3.47;;;1.93;;
19187;SDS011;9726;52.198;8.792;2023-01-08T05:29:48;2.53;;;1.77;;
19187;SDS011;9726;52.198;8.792;2023-01-08T05:32:17;3.60;;;1.97;;
19187;SDS011;9726;52.198;8.792;2023-01-08T05:34:45;6.93;;;1.73;;
19187;SDS011;9726;52.198;8.792;2023-01-08T05:37:12;3.73;;;2.00;;
19187;SDS011;9726;52.198;8.792;2023-01-08T05:39:39;1.97;;;1.80;;
19187;SDS011;9726;52.198;8.792;2023-01-08T05:42:07;2.23;;;1.43;;
19187;SDS011;9726;52.198;8.792;2023-01-08T05:44:34;5.17;;;1.87;;
19187;SDS011;9726;52.198;8.792;2023-01-08T05:47:01;2.30;;;1.67;;
19187;SDS011;9726;52.198;8.792;2023-01-08T05:49:29;3.90;;;2.00;;
19187;SDS011;9726;52.198;8.792;2023-01-08T05:51:56;2.67;;;2.10;;
19187;SDS011;9726;52.198;8.792;2023-01-08T05:54:23;3.30;;;1.87;;
19187;SDS011;9726;52.198;8.792;2023-01-08T05:56:51;3.97;;;1.60;;
19187;SDS011;9726;52.198;8.792;2023-01-08T05:59:18;8.33;;;1.97;;
19187;SDS011;9726;52.198;8.792;2023-01-08T06:01:45;5.80;;;2.00;;
19187;SDS011;9726;52.198;8.792;2023-01-08T06:04:13;1.43;;;1.33;;
19187;SDS011;9726;52.198;8.792;2023-01-08T06:06:40;5.10;;;2.03;;
19187;SDS011;9726;52.198;8.792;2023-01-08T06:09:08;4.33;;;1.73;;
19187;SDS011;9726;52.198;8.792;2023-01-08T06:11:35;2.87;;;1.83;;
19187;SDS011;9726;52.198;8.792;2023-01-08T06:14:03;1.93;;;1.57;;
19187;SDS011;9726;52.198;8.792;2023-01-08T06:16:30;5.00;;;1.90;;
19187;SDS011;9726;52.198;8.792;2023-01-08T06:18:57;3.23;;;1.77;;
19187;SDS011;9726;52.198;8.792;2023-01-08T06:21:25;3.63;;;1.97;;
19187;SDS011;9726;52.198;8.792;2023-01-08T06:23:52;3.13;;;2.03;;
19187;SDS011;9726;52.198;8.792;2023-01-08T06:26:19;2.63;;;1.70;;
19187;SDS011;9726;52.198;8.792;2023-01-08T06:28:47;4.13;;;1.90;;
19187;SDS011;9726;52.198;8.792;2023-01-08T06:31:14;2.27;;;1.63;;
19187;SDS011;9726;52.198;8.792;2023-01-08T06:33:45;6.03;;;1.83;;
19187;SDS011;9726;52.198;8.792;2023-01-08T06:36:12;4.33;;;1.77;;
19187;SDS011;9726;52.198;8.792;2023-01-08T06:38:39;3.90;;;1.87;;
19187;SDS011;9726;52.198;8.792;2023-01-08T06:41:07;3.27;;;1.50;;
19187;SDS011;9726;52.198;8.792;2023-01-08T06:43:36;2.40;;;1.80;;
19187;SDS011;9726;52.198;8.792;2023-01-08T06:46:04;1.87;;;1.67;;
19187;SDS011;9726;52.198;8.792;2023-01-08T06:48:31;3.93;;;1.77;;
19187;SDS011;9726;52.198;8.792;2023-01-08T06:50:59;3.07;;;1.90;;
19187;SDS011;9726;52.198;8.792;2023-01-08T06:53:27;2.13;;;1.60;;
19187;SDS011;9726;52.198;8.792;2023-01-08T06:55:54;5.20;;;3.10;;
19187;SDS011;9726;52.198;8.792;2023-01-08T06:58:25;2.10;;;1.50;;
19187;SDS011;9726;52.198;8.792;2023-01-08T07:00:52;2.57;;;1.63;;
19187;SDS011;9726;52.198;8.792;2023-01-08T07:03:19;4.37;;;1.80;;
19187;SDS011;9726;52.198;8.792;2023-01-08T07:05:47;3.90;;;2.07;;
19187;SDS011;9726;52.198;8.792;2023-01-08T07:08:16;2.90;;;2.10;;
19187;SDS011;9726;52.198;8.792;2023-01-08T07:10:44;3.13;;;1.70;;
19187;SDS011;9726;52.198;8.792;2023-01-08T07:13:11;2.00;;;1.60;;
19187;SDS011;9726;52.198;8.792;2023-01-08T07:15:39;1.47;;;1.37;;
19187;SDS011;9726;52.198;8.792;2023-01-08T07:18:07;2.47;;;1.73;;
19187;SDS011;9726;52.198;8.792;2023-01-08T07:20:35;1.77;;;1.40;;
19187;SDS011;9726;52.198;8.792;2023-01-08T07:23:03;4.50;;;1.60;;
19187;SDS011;9726;52.198;8.792;2023-01-08T07:25:31;2.87;;;1.53;;
19187;SDS011;9726;52.198;8.792;2023-01-08T07:27:59;2.97;;;1.67;;
19187;SDS011;9726;52.198;8.792;2023-01-08T07:30:27;4.00;;;1.67;;
19187;SDS011;9726;52.198;8.792;2023-01-08T07:32:57;2.17;;;1.60;;
19187;SDS011;9726;52.198;8.792;2023-01-08T07:35:25;2.53;;;2.00;;
19187;SDS011;9726;52.198;8.792;2023-01-08T07:37:52;3.07;;;2.00;;
19187;SDS011;9726;52.198;8.792;2023-01-08T07:40:20;2.53;;;1.70;;
19187;SDS011;9726;52.198;8.792;2023-01-08T07:42:47;2.77;;;1.87;;
19187;SDS011;9726;52.198;8.792;2023-01-08T07:45:14;2.57;;;1.43;;
19187;SDS011;9726;52.198;8.792;2023-01-08T07:47:42;1.70;;;1.37;;
19187;SDS011;9726;52.198;8.792;2023-01-08T07:50:09;6.17;;;1.60;;
19187;SDS011;9726;52.198;8.792;2023-01-08T07:52:37;3.07;;;1.87;;
19187;SDS011;9726;52.198;8.792;2023-01-08T07:55:04;1.77;;;1.17;;
19187;SDS011;9726;52.198;8.792;2023-01-08T07:57:31;1.37;;;1.27;;
19187;SDS011;9726;52.198;8.792;2023-01-08T07:59:59;1.50;;;1.13;;
19187;SDS011;9726;52.198;8.792;2023-01-08T08:02:26;2.73;;;1.23;;
19187;SDS011;9726;52.198;8.792;2023-01-08T08:04:54;1.60;;;1.37;;
19187;SDS011;9726;52.198;8.792;2023-01-08T08:07:22;1.90;;;1.30;;
19187;SDS011;9726;52.198;8.792;2023-01-08T08:09:49;2.20;;;1.40;;
19187;SDS011;9726;52.198;8.792;2023-01-08T08:12:16;3.63;;;1.40;;
19187;SDS011;9726;52.198;8.792;2023-01-08T08:14:44;1.83;;;1.47;;
19187;SDS011;9726;52.198;8.792;2023-01-08T08:17:11;1.47;;;1.37;;
19187;SDS011;9726;52.198;8.792;2023-01-08T08:19:38;4.67;;;1.37;;
19187;SDS011;9726;52.198;8.792;2023-01-08T08:22:09;1.40;;;1.30;;
19187;SDS011;9726;52.198;8.792;2023-01-08T08:24:36;3.03;;;1.53;;
19187;SDS011;9726;52.198;8.792;2023-01-08T08:27:03;6.63;;;1.53;;
19187;SDS011;9726;52.198;8.792;2023-01-08T08:29:32;3.10;;;1.83;;
19187;SDS011;9726;52.198;8.792;2023-01-08T08:31:59;1.50;;;1.40;;
19187;SDS011;9726;52.198;8.792;2023-01-08T08:34:26;2.70;;;1.30;;
19187;SDS011;9726;52.198;8.792;2023-01-08T08:36:54;2.33;;;1.47;;
19187;SDS011;9726;52.198;8.792;2023-01-08T08:39:21;1.30;;;1.17;;
19187;SDS011;9726;52.198;8.792;2023-01-08T08:41:48;1.27;;;1.17;;
19187;SDS011;9726;52.198;8.792;2023-01-08T08:44:16;2.07;;;1.53;;
19187;SDS011;9726;52.198;8.792;2023-01-08T08:46:43;1.77;;;1.17;;
19187;SDS011;9726;52.198;8.792;2023-01-08T08:49:11;1.85;;;1.15;;
19187;SDS011;9726;52.198;8.792;2023-01-08T08:51:38;1.30;;;1.10;;
19187;SDS011;9726;52.198;8.792;2023-01-08T08:54:05;2.80;;;1.17;;
19187;SDS011;9726;52.198;8.792;2023-01-08T08:56:33;2.47;;;1.20;;
19187;SDS011;9726;52.198;8.792;2023-01-08T08:59:00;1.03;;;0.93;;
19187;SDS011;9726;52.198;8.792;2023-01-08T09:01:28;2.13;;;1.00;;
19187;SDS011;9726;52.198;8.792;2023-01-08T09:03:55;1.20;;;0.97;;
19187;SDS011;9726;52.198;8.792;2023-01-08T09:06:23;1.10;;;1.00;;
19187;SDS011;9726;52.198;8.792;2023-01-08T09:08:52;3.00;;;1.37;;
19187;SDS011;9726;52.198;8.792;2023-01-08T09:11:23;1.57;;;1.17;;
19187;SDS011;9726;52.198;8.792;2023-01-08T09:13:50;3.27;;;1.07;;
19187;SDS011;9726;52.198;8.792;2023-01-08T09:16:18;1.30;;;1.20;;
19187;SDS011;9726;52.198;8.792;2023-01-08T09:18:45;1.50;;;0.90;;
19187;SDS011;9726;52.198;8.792;2023-01-08T09:21:14;1.85;;;1.10;;
19187;SDS011;9726;52.198;8.792;2023-01-08T09:23:42;3.43;;;1.10;;
19187;SDS011;9726;52.198;8.792;2023-01-08T09:26:09;1.07;;;0.83;;
19187;SDS011;9726;52.198;8.792;2023-01-08T09:28:36;1.53;;;0.90;;
19187;SDS011;9726;52.198;8.792;2023-01-08T09:31:04;0.87;;;0.83;;
19187;SDS011;9726;52.198;8.792;2023-01-08T09:33:32;6.47;;;1.00;;
19187;SDS011;9726;52.198;8.792;2023-01-08T09:35:59;0.70;;;0.70;;
19187;SDS011;9726;52.198;8.792;2023-01-08T09:38:27;0.83;;;0.60;;
19187;SDS011;9726;52.198;8.792;2023-01-08T09:40:59;1.80;;;0.77;;
19187;SDS011;9726;52.198;8.792;2023-01-08T09:43:28;2.20;;;0.87;;
19187;SDS011;9726;52.198;8.792;2023-01-08T09:45:57;4.67;;;0.97;;
19187;SDS011;9726;52.198;8.792;2023-01-08T09:48:27;1.13;;;0.70;;
19187;SDS011;9726;52.198;8.792;2023-01-08T09:50:55;0.93;;;0.70;;
19187;SDS011;9726;52.198;8.792;2023-01-08T09:53:23;1.33;;;0.80;;
19187;SDS011;9726;52.198;8.792;2023-01-08T09:55:53;1.27;;;1.17;;
19187;SDS011;9726;52.198;8.792;2023-01-08T09:58:37;2.43;;;0.83;;
19187;SDS011;9726;52.198;8.792;2023-01-08T10:01:05;3.97;;;1.20;;
19187;SDS011;9726;52.198;8.792;2023-01-08T10:03:38;1.27;;;0.90;;
19187;SDS011;9726;52.198;8.792;2023-01-08T10:06:09;2.00;;;1.00;;
19187;SDS011;9726;52.198;8.792;2023-01-08T10:08:37;1.63;;;1.10;;
19187;SDS011;9726;52.198;8.792;2023-01-08T10:11:05;1.67;;;1.17;;
19187;SDS011;9726;52.198;8.792;2023-01-08T10:13:34;1.07;;;0.93;;
19187;SDS011;9726;52.198;8.792;2023-01-08T10:16:06;1.47;;;1.13;;
19187;SDS011;9726;52.198;8.792;2023-01-08T10:18:34;5.70;;;1.50;;
19187;SDS011;9726;52.198;8.792;2023-01-08T10:21:02;2.37;;;1.40;;
19187;SDS011;9726;52.198;8.792;2023-01-08T10:23:29;2.43;;;1.33;;
19187;SDS011;9726;52.198;8.792;2023-01-08T10:28:26;2.00;;;1.10;;
19187;SDS011;9726;52.198;8.792;2023-01-08T10:30:58;4.07;;;1.50;;
19187;SDS011;9726;52.198;8.792;2023-01-08T10:33:29;5.33;;;1.90;;
19187;SDS011;9726;52.198;8.792;2023-01-08T10:35:59;1.53;;;1.33;;
19187;SDS011;9726;52.198;8.792;2023-01-08T10:38:31;2.77;;;1.03;;
19187;SDS011;9726;52.198;8.792;2023-01-08T10:41:00;2.23;;;1.00;;
19187;SDS011;9726;52.198;8.792;2023-01-08T10:43:33;3.40;;;1.17;;
19187;SDS011;9726;52.198;8.792;2023-01-08T10:46:13;3.80;;;1.10;;
19187;SDS011;9726;52.198;8.792;2023-01-08T10:48:45;2.90;;;1.00;;
19187;SDS011;9726;52.198;8.792;2023-01-08T10:51:17;3.93;;;0.80;;
19187;SDS011;9726;52.198;8.792;2023-01-08T10:53:45;1.73;;;1.37;;
19187;SDS011;9726;52.198;8.792;2023-01-08T10:56:20;5.70;;;1.43;;
19187;SDS011;9726;52.198;8.792;2023-01-08T10:58:49;6.60;;;1.67;;
19187;SDS011;9726;52.198;8.792;2023-01-08T11:01:18;2.20;;;1.00;;
19187;SDS011;9726;52.198;8.792;2023-01-08T11:03:49;3.13;;;1.10;;
19187;SDS011;9726;52.198;8.792;2023-01-08T11:06:21;1.40;;;1.00;;
19187;SDS011;9726;52.198;8.792;2023-01-08T11:08:53;2.27;;;0.97;;
19187;SDS011;9726;52.198;8.792;2023-01-08T11:11:21;6.20;;;1.90;;
19187;SDS011;9726;52.198;8.792;2023-01-08T11:13:56;5.87;;;1.27;;
19187;SDS011;9726;52.198;8.792;2023-01-08T11:16:35;10.27;;;1.50;;
19187;SDS011;9726;52.198;8.792;2023-01-08T11:19:03;9.37;;;1.53;;
19187;SDS011;9726;52.198;8.792;2023-01-08T11:21:32;5.50;;;1.40;;
19187;SDS011;9726;52.198;8.792;2023-01-08T11:26:29;10.03;;;1.80;;
19187;SDS011;9726;52.198;8.792;2023-01-08T11:29:10;11.57;;;1.83;;
19187;SDS011;9726;52.198;8.792;2023-01-08T11:31:50;4.90;;;1.27;;
19187;SDS011;9726;52.198;8.792;2023-01-08T11:39:36;10.60;;;1.90;;
19187;SDS011;9726;52.198;8.792;2023-01-08T11:42:18;16.97;;;2.10;;
19187;SDS011;9726;52.198;8.792;2023-01-08T11:44:53;4.03;;;1.60;;
19187;SDS011;9726;52.198;8.792;2023-01-08T11:47:40;9.97;;;1.60;;
19187;SDS011;9726;52.198;8.792;2023-01-08T11:50:18;6.67;;;1.67;;
19187;SDS011;9726;52.198;8.792;2023-01-08T11:52:51;13.10;;;1.80;;
19187;SDS011;9726;52.198;8.792;2023-01-08T12:03:15;4.50;;;1.40;;
19187;SDS011;9726;52.198;8.792;2023-01-08T12:08:22;9.63;;;1.63;;
19187;SDS011;9726;52.198;8.792;2023-01-08T12:10:56;12.07;;;1.73;;
19187;SDS011;9726;52.198;8.792;2023-01-08T12:13:42;10.47;;;1.23;;
19187;SDS011;9726;52.198;8.792;2023-01-08T12:19:02;12.70;;;1.57;;
19187;SDS011;9726;52.198;8.792;2023-01-08T12:21:46;10.20;;;2.03;;
19187;SDS011;9726;52.198;8.792;2023-01-08T12:29:28;4.67;;;1.70;;
19187;SDS011;9726;52.198;8.792;2023-01-08T12:40:03;16.47;;;2.40;;
19187;SDS011;9726;52.198;8.792;2023-01-08T12:42:35;15.57;;;2.60;;
19187;SDS011;9726;52.198;8.792;2023-01-08T12:45:04;11.87;;;1.70;;
19187;SDS011;9726;52.198;8.792;2023-01-08T12:47:34;5.27;;;1.40;;
19187;SDS011;9726;52.198;8.792;2023-01-08T12:50:16;6.40;;;1.70;;
19187;SDS011;9726;52.198;8.792;2023-01-08T12:52:50;13.53;;;1.73;;
19187;SDS011;9726;52.198;8.792;2023-01-08T12:55:26;10.77;;;1.90;;
19187;SDS011;9726;52.198;8.792;2023-01-08T12:57:59;7.80;;;1.57;;
19187;SDS011;9726;52.198;8.792;2023-01-08T13:00:36;9.00;;;1.60;;
19187;SDS011;9726;52.198;8.792;2023-01-08T13:03:10;10.87;;;2.47;;
19187;SDS011;9726;52.198;8.792;2023-01-08T13:05:40;9.37;;;2.00;;
19187;SDS011;9726;52.198;8.792;2023-01-08T13:10:54;10.70;;;2.00;;
19187;SDS011;9726;52.198;8.792;2023-01-08T13:13:32;9.97;;;1.40;;
19187;SDS011;9726;52.198;8.792;2023-01-08T13:18:39;6.50;;;1.70;;
19187;SDS011;9726;52.198;8.792;2023-01-08T13:21:08;11.87;;;1.90;;
19187;SDS011;9726;52.198;8.792;2023-01-08T13:23:37;6.03;;;1.80;;
19187;SDS011;9726;52.198;8.792;2023-01-08T13:26:05;10.40;;;2.33;;
19187;SDS011;9726;52.198;8.792;2023-01-08T13:31:07;7.17;;;1.77;;
19187;SDS011;9726;52.198;8.792;2023-01-08T13:33:37;5.60;;;1.63;;
19187;SDS011;9726;52.198;8.792;2023-01-08T13:38:35;7.27;;;1.57;;
19187;SDS011;9726;52.198;8.792;2023-01-08T13:45:15;5.37;;;1.40;;
19187;SDS011;9726;52.198;8.792;2023-01-08T13:54:38;3.73;;;1.50;;
19187;SDS011;9726;52.198;8.792;2023-01-08T13:57:13;6.90;;;1.30;;
19187;SDS011;9726;52.198;8.792;2023-01-08T14:22:22;1.90;;;1.10;;
19187;SDS011;9726;52.198;8.792;2023-01-08T14:24:55;4.13;;;1.40;;
19187;SDS011;9726;52.198;8.792;2023-01-08T14:27:34;2.07;;;1.10;;
19187;SDS011;9726;52.198;8.792;2023-01-08T14:30:13;1.33;;;0.80;;
19187;SDS011;9726;52.198;8.792;2023-01-08T14:38:12;2.87;;;1.10;;
19187;SDS011;9726;52.198;8.792;2023-01-08T14:40:44;1.50;;;1.30;;
19187;SDS011;9726;52.198;8.792;2023-01-08T14:47:32;4.53;;;1.33;;
19187;SDS011;9726;52.198;8.792;2023-01-08T14:50:01;1.23;;;0.87;;
19187;SDS011;9726;52.198;8.792;2023-01-08T14:52:32;2.23;;;1.07;;
19187;SDS011;9726;52.198;8.792;2023-01-08T14:55:04;2.37;;;1.20;;
19187;SDS011;9726;52.198;8.792;2023-01-08T15:02:01;2.80;;;1.43;;
19187;SDS011;9726;52.198;8.792;2023-01-08T15:04:33;0.93;;;0.90;;
19187;SDS011;9726;52.198;8.792;2023-01-08T15:07:07;3.73;;;1.23;;
19187;SDS011;9726;52.198;8.792;2023-01-08T15:09:57;2.20;;;0.90;;
19187;SDS011;9726;52.198;8.792;2023-01-08T15:12:37;1.47;;;0.97;;
19187;SDS011;9726;52.198;8.792;2023-01-08T15:15:10;2.03;;;1.00;;
19187;SDS011;9726;52.198;8.792;2023-01-08T15:17:38;1.23;;;0.80;;
19187;SDS011;9726;52.198;8.792;2023-01-08T15:24:23;1.57;;;0.60;;
19187;SDS011;9726;52.198;8.792;2023-01-08T15:26:51;7.13;;;0.70;;
19187;SDS011;9726;52.198;8.792;2023-01-08T15:29:22;1.50;;;0.90;;
19187;SDS011;9726;52.198;8.792;2023-01-08T15:31:51;1.27;;;1.03;;
19187;SDS011;9726;52.198;8.792;2023-01-08T15:34:19;3.80;;;1.37;;
19187;SDS011;9726;52.198;8.792;2023-01-08T15:36:47;4.10;;;1.40;;
19187;SDS011;9726;52.198;8.792;2023-01-08T15:39:15;2.50;;;1.27;;
19187;SDS011;9726;52.198;8.792;2023-01-08T15:41:44;6.87;;;1.60;;
19187;SDS011;9726;52.198;8.792;2023-01-08T15:44:34;2.20;;;1.30;;
19187;SDS011;9726;52.198;8.792;2023-01-08T15:47:07;2.57;;;1.50;;
19187;SDS011;9726;52.198;8.792;2023-01-08T15:49:35;2.77;;;1.63;;
19187;SDS011;9726;52.198;8.792;2023-01-08T15:52:25;4.60;;;1.70;;
19187;SDS011;9726;52.198;8.792;2023-01-08T15:59:33;4.00;;;1.57;;
19187;SDS011;9726;52.198;8.792;2023-01-08T16:08:45;1.57;;;1.33;;
19187;SDS011;9726;52.198;8.792;2023-01-08T16:11:13;1.20;;;1.00;;
19187;SDS011;9726;52.198;8.792;2023-01-08T16:13:40;2.20;;;1.40;;
19187;SDS011;9726;52.198;8.792;2023-01-08T16:16:11;1.43;;;1.33;;
19187;SDS011;9726;52.198;8.792;2023-01-08T16:18:39;7.70;;;1.50;;
19187;SDS011;9726;52.198;8.792;2023-01-08T16:21:07;4.40;;;1.33;;
19187;SDS011;9726;52.198;8.792;2023-01-08T16:23:38;1.30;;;1.20;;
19187;SDS011;9726;52.198;8.792;2023-01-08T16:26:06;2.40;;;1.50;;
19187;SDS011;9726;52.198;8.792;2023-01-08T16:28:34;3.83;;;1.30;;
19187;SDS011;9726;52.198;8.792;2023-01-08T16:31:02;3.03;;;0.90;;
19187;SDS011;9726;52.198;8.792;2023-01-08T16:33:29;3.87;;;0.90;;
19187;SDS011;9726;52.198;8.792;2023-01-08T16:35:58;3.70;;;1.20;;
19187;SDS011;9726;52.198;8.792;2023-01-08T16:38:25;2.03;;;1.30;;
19187;SDS011;9726;52.198;8.792;2023-01-08T16:40:53;1.30;;;1.00;;
19187;SDS011;9726;52.198;8.792;2023-01-08T16:43:25;2.73;;;1.43;;
19187;SDS011;9726;52.198;8.792;2023-01-08T16:45:53;3.93;;;1.00;;
19187;SDS011;9726;52.198;8.792;2023-01-08T16:48:21;0.97;;;0.87;;
19187;SDS011;9726;52.198;8.792;2023-01-08T16:50:48;0.90;;;0.70;;
19187;SDS011;9726;52.198;8.792;2023-01-08T16:53:16;0.87;;;0.87;;
19187;SDS011;9726;52.198;8.792;2023-01-08T16:55:44;2.77;;;1.00;;
19187;SDS011;9726;52.198;8.792;2023-01-08T16:58:11;1.00;;;0.93;;
19187;SDS011;9726;52.198;8.792;2023-01-08T17:00:38;4.30;;;1.20;;
19187;SDS011;9726;52.198;8.792;2023-01-08T17:03:06;1.90;;;1.20;;
19187;SDS011;9726;52.198;8.792;2023-01-08T17:05:35;2.93;;;1.57;;
19187;SDS011;9726;52.198;8.792;2023-01-08T17:08:02;3.00;;;1.43;;
19187;SDS011;9726;52.198;8.792;2023-01-08T17:10:29;2.13;;;1.30;;
19187;SDS011;9726;52.198;8.792;2023-01-08T17:12:57;2.30;;;1.20;;
19187;SDS011;9726;52.198;8.792;2023-01-08T17:15:24;1.10;;;1.00;;